sensor_id;sensor_type;location;lat;lon;timestamp;P1;durP1;ratioP1;P2;durP2;ratioP2
76846;SDS011;65813;49.546;8.644;2022-12-07T05:17:38;12.05;;;6.53;;
76846;SDS011;65813;49.546;8.644;2022-12-07T05:21:38;10.60;;;5.78;;
76846;SDS011;65813;49.546;8.644;2022-12-07T05:25:39;20.83;;;7.32;;
76846;SDS011;65813;49.546;8.644;2022-12-07T05:29:40;10.33;;;5.47;;
76846;SDS011;65813;49.546;8.644;2022-12-07T05:33:40;12.80;;;5.73;;
76846;SDS011;65813;49.546;8.644;2022-12-07T05:37:40;13.03;;;7.27;;
76846;SDS011;65813;49.546;8.644;2022-12-07T05:41:40;18.50;;;8.40;;
76846;SDS011;65813;49.546;8.644;2022-12-07T05:46:02;14.18;;;7.45;;
76846;SDS011;65813;49.546;8.644;2022-12-07T05:50:03;16.42;;;8.40;;
76846;SDS011;65813;49.546;8.644;2022-12-07T05:54:06;11.85;;;6.45;;
76846;SDS011;65813;49.546;8.644;2022-12-07T05:58:07;10.20;;;5.20;;
76846;SDS011;65813;49.546;8.644;2022-12-07T06:02:26;10.65;;;5.75;;
76846;SDS011;65813;49.546;8.644;2022-12-07T06:06:26;13.87;;;5.93;;
76846;SDS011;65813;49.546;8.644;2022-12-07T06:10:27;10.60;;;4.97;;
76846;SDS011;65813;49.546;8.644;2022-12-07T06:14:27;9.67;;;4.40;;
76846;SDS011;65813;49.546;8.644;2022-12-07T06:18:27;13.80;;;6.10;;
76846;SDS011;65813;49.546;8.644;2022-12-07T06:22:28;18.30;;;7.80;;
76846;SDS011;65813;49.546;8.644;2022-12-07T06:26:28;10.67;;;5.40;;
76846;SDS011;65813;49.546;8.644;2022-12-07T06:30:28;9.40;;;5.27;;
76846;SDS011;65813;49.546;8.644;2022-12-07T06:34:29;10.77;;;4.97;;
76846;SDS011;65813;49.546;8.644;2022-12-07T06:38:29;10.37;;;5.13;;
76846;SDS011;65813;49.546;8.644;2022-12-07T06:42:30;12.23;;;5.07;;
76846;SDS011;65813;49.546;8.644;2022-12-07T06:46:30;9.27;;;5.03;;
76846;SDS011;65813;49.546;8.644;2022-12-07T06:50:30;10.30;;;4.63;;
76846;SDS011;65813;49.546;8.644;2022-12-07T06:54:31;11.40;;;5.20;;
76846;SDS011;65813;49.546;8.644;2022-12-07T06:58:31;9.50;;;5.10;;
76846;SDS011;65813;49.546;8.644;2022-12-07T07:02:31;11.17;;;5.77;;
76846;SDS011;65813;49.546;8.644;2022-12-07T07:06:32;11.17;;;5.60;;
76846;SDS011;65813;49.546;8.644;2022-12-07T07:10:32;9.18;;;5.20;;
76846;SDS011;65813;49.546;8.644;2022-12-07T07:14:33;10.75;;;5.32;;
76846;SDS011;65813;49.546;8.644;2022-12-07T07:18:33;10.50;;;5.47;;
76846;SDS011;65813;49.546;8.644;2022-12-07T07:22:34;10.43;;;5.28;;
76846;SDS011;65813;49.546;8.644;2022-12-07T07:26:35;11.37;;;5.23;;
76846;SDS011;65813;49.546;8.644;2022-12-07T07:30:35;11.33;;;5.63;;
76846;SDS011;65813;49.546;8.644;2022-12-07T07:34:35;12.80;;;5.80;;
76846;SDS011;65813;49.546;8.644;2022-12-07T07:38:36;9.77;;;5.93;;
76846;SDS011;65813;49.546;8.644;2022-12-07T07:42:36;11.43;;;5.40;;
76846;SDS011;65813;49.546;8.644;2022-12-07T07:46:36;12.20;;;6.03;;
76846;SDS011;65813;49.546;8.644;2022-12-07T07:50:37;11.33;;;6.07;;
76846;SDS011;65813;49.546;8.644;2022-12-07T07:54:37;12.53;;;5.87;;
76846;SDS011;65813;49.546;8.644;2022-12-07T07:58:37;11.53;;;5.87;;
76846;SDS011;65813;49.546;8.644;2022-12-07T08:02:39;11.23;;;5.47;;
76846;SDS011;65813;49.546;8.644;2022-12-07T08:06:40;12.82;;;6.85;;
76846;SDS011;65813;49.546;8.644;2022-12-07T08:10:42;10.57;;;5.80;;
76846;SDS011;65813;49.546;8.644;2022-12-07T08:14:42;11.98;;;6.18;;
76846;SDS011;65813;49.546;8.644;2022-12-07T08:18:42;13.87;;;7.27;;
76846;SDS011;65813;49.546;8.644;2022-12-07T08:22:43;14.90;;;6.73;;
76846;SDS011;65813;49.546;8.644;2022-12-07T08:26:43;13.30;;;6.97;;
76846;SDS011;65813;49.546;8.644;2022-12-07T08:30:44;10.45;;;6.18;;
76846;SDS011;65813;49.546;8.644;2022-12-07T08:34:44;15.03;;;6.70;;
76846;SDS011;65813;49.546;8.644;2022-12-07T08:38:44;11.77;;;6.50;;
76846;SDS011;65813;49.546;8.644;2022-12-07T08:42:49;12.68;;;6.25;;
76846;SDS011;65813;49.546;8.644;2022-12-07T08:46:51;14.00;;;7.22;;
76846;SDS011;65813;49.546;8.644;2022-12-07T08:50:56;14.27;;;7.40;;
76846;SDS011;65813;49.546;8.644;2022-12-07T08:54:56;13.82;;;6.65;;
76846;SDS011;65813;49.546;8.644;2022-12-07T08:58:58;11.80;;;6.60;;
76846;SDS011;65813;49.546;8.644;2022-12-07T09:02:59;14.43;;;7.15;;
76846;SDS011;65813;49.546;8.644;2022-12-07T09:06:59;12.33;;;6.17;;
76846;SDS011;65813;49.546;8.644;2022-12-07T09:11:00;13.17;;;7.10;;
76846;SDS011;65813;49.546;8.644;2022-12-07T09:15:00;13.55;;;6.90;;
76846;SDS011;65813;49.546;8.644;2022-12-07T09:19:01;13.98;;;6.75;;
76846;SDS011;65813;49.546;8.644;2022-12-07T09:23:01;12.48;;;6.63;;
76846;SDS011;65813;49.546;8.644;2022-12-07T09:27:02;14.37;;;7.03;;
76846;SDS011;65813;49.546;8.644;2022-12-07T09:31:02;9.63;;;5.83;;
76846;SDS011;65813;49.546;8.644;2022-12-07T09:35:03;12.98;;;7.05;;
76846;SDS011;65813;49.546;8.644;2022-12-07T09:39:04;13.48;;;7.00;;
76846;SDS011;65813;49.546;8.644;2022-12-07T09:43:11;13.07;;;7.05;;
76846;SDS011;65813;49.546;8.644;2022-12-07T09:47:18;13.48;;;6.75;;
76846;SDS011;65813;49.546;8.644;2022-12-07T09:51:22;13.10;;;7.65;;
76846;SDS011;65813;49.546;8.644;2022-12-07T09:55:25;12.93;;;6.63;;
76846;SDS011;65813;49.546;8.644;2022-12-07T09:59:27;12.82;;;7.55;;
76846;SDS011;65813;49.546;8.644;2022-12-07T10:03:29;12.52;;;5.15;;
76846;SDS011;65813;49.546;8.644;2022-12-07T10:07:29;12.10;;;6.68;;
76846;SDS011;65813;49.546;8.644;2022-12-07T10:11:30;14.05;;;7.25;;
76846;SDS011;65813;49.546;8.644;2022-12-07T10:15:47;14.73;;;6.80;;
76846;SDS011;65813;49.546;8.644;2022-12-07T10:19:50;15.35;;;7.85;;
76846;SDS011;65813;49.546;8.644;2022-12-07T10:28:18;13.45;;;6.55;;
76846;SDS011;65813;49.546;8.644;2022-12-07T10:44:33;14.00;;;7.38;;
76846;SDS011;65813;49.546;8.644;2022-12-07T11:02:03;15.30;;;7.25;;
76846;SDS011;65813;49.546;8.644;2022-12-07T11:06:30;15.90;;;8.30;;
76846;SDS011;65813;49.546;8.644;2022-12-07T11:15:19;17.60;;;8.73;;
76846;SDS011;65813;49.546;8.644;2022-12-07T11:32:33;14.68;;;7.78;;
76846;SDS011;65813;49.546;8.644;2022-12-07T11:36:45;16.23;;;8.10;;
76846;SDS011;65813;49.546;8.644;2022-12-07T11:40:50;16.23;;;7.35;;
76846;SDS011;65813;49.546;8.644;2022-12-07T11:49:48;16.00;;;6.90;;
76846;SDS011;65813;49.546;8.644;2022-12-07T11:54:13;16.90;;;8.82;;
76846;SDS011;65813;49.546;8.644;2022-12-07T12:02:49;21.20;;;9.77;;
76846;SDS011;65813;49.546;8.644;2022-12-07T12:06:57;17.50;;;8.65;;
76846;SDS011;65813;49.546;8.644;2022-12-07T12:11:00;16.30;;;8.95;;
76846;SDS011;65813;49.546;8.644;2022-12-07T12:27:59;14.57;;;7.88;;
76846;SDS011;65813;49.546;8.644;2022-12-07T12:32:04;15.57;;;8.07;;
76846;SDS011;65813;49.546;8.644;2022-12-07T12:48:29;17.27;;;9.07;;
76846;SDS011;65813;49.546;8.644;2022-12-07T12:52:47;15.48;;;7.45;;
76846;SDS011;65813;49.546;8.644;2022-12-07T13:05:35;16.42;;;7.45;;
76846;SDS011;65813;49.546;8.644;2022-12-07T13:09:35;17.33;;;7.83;;
76846;SDS011;65813;49.546;8.644;2022-12-07T13:13:36;14.35;;;7.72;;
76846;SDS011;65813;49.546;8.644;2022-12-07T13:25:41;16.33;;;7.10;;
76846;SDS011;65813;49.546;8.644;2022-12-07T13:29:45;13.60;;;7.68;;
76846;SDS011;65813;49.546;8.644;2022-12-07T13:33:47;12.50;;;6.97;;
76846;SDS011;65813;49.546;8.644;2022-12-07T13:37:48;15.75;;;7.53;;
76846;SDS011;65813;49.546;8.644;2022-12-07T13:41:49;13.63;;;7.70;;
76846;SDS011;65813;49.546;8.644;2022-12-07T13:45:58;48.95;;;18.88;;
76846;SDS011;65813;49.546;8.644;2022-12-07T13:50:00;69.40;;;22.75;;
76846;SDS011;65813;49.546;8.644;2022-12-07T13:54:09;40.83;;;15.10;;
76846;SDS011;65813;49.546;8.644;2022-12-07T13:58:11;10.38;;;5.82;;
76846;SDS011;65813;49.546;8.644;2022-12-07T14:02:22;9.27;;;4.63;;
76846;SDS011;65813;49.546;8.644;2022-12-07T14:06:26;9.15;;;4.35;;
76846;SDS011;65813;49.546;8.644;2022-12-07T14:10:41;8.57;;;3.40;;
76846;SDS011;65813;49.546;8.644;2022-12-07T14:14:53;10.50;;;3.63;;
76846;SDS011;65813;49.546;8.644;2022-12-07T14:18:59;6.68;;;3.25;;
76846;SDS011;65813;49.546;8.644;2022-12-07T14:23:00;6.38;;;3.75;;
76846;SDS011;65813;49.546;8.644;2022-12-07T14:27:21;5.43;;;3.05;;
76846;SDS011;65813;49.546;8.644;2022-12-07T14:31:25;8.00;;;3.65;;
76846;SDS011;65813;49.546;8.644;2022-12-07T14:35:26;6.65;;;2.92;;
76846;SDS011;65813;49.546;8.644;2022-12-07T14:39:27;5.75;;;3.40;;
76846;SDS011;65813;49.546;8.644;2022-12-07T14:43:27;8.30;;;3.27;;
76846;SDS011;65813;49.546;8.644;2022-12-07T14:47:27;5.50;;;2.90;;
76846;SDS011;65813;49.546;8.644;2022-12-07T14:51:28;6.37;;;2.73;;
76846;SDS011;65813;49.546;8.644;2022-12-07T14:55:29;9.07;;;3.50;;
76846;SDS011;65813;49.546;8.644;2022-12-07T14:59:31;14.70;;;6.18;;
76846;SDS011;65813;49.546;8.644;2022-12-07T15:03:31;8.90;;;3.13;;
76846;SDS011;65813;49.546;8.644;2022-12-07T15:07:31;7.93;;;4.53;;
76846;SDS011;65813;49.546;8.644;2022-12-07T15:11:32;10.43;;;5.63;;
76846;SDS011;65813;49.546;8.644;2022-12-07T15:15:32;8.63;;;3.60;;
76846;SDS011;65813;49.546;8.644;2022-12-07T15:19:33;7.90;;;3.72;;
76846;SDS011;65813;49.546;8.644;2022-12-07T15:23:34;7.80;;;3.93;;
76846;SDS011;65813;49.546;8.644;2022-12-07T15:27:34;6.83;;;3.83;;
76846;SDS011;65813;49.546;8.644;2022-12-07T15:31:34;7.20;;;3.00;;
76846;SDS011;65813;49.546;8.644;2022-12-07T15:35:42;7.03;;;3.58;;
76846;SDS011;65813;49.546;8.644;2022-12-07T15:39:44;8.95;;;3.80;;
76846;SDS011;65813;49.546;8.644;2022-12-07T15:43:44;6.33;;;3.70;;
76846;SDS011;65813;49.546;8.644;2022-12-07T15:48:03;6.28;;;3.80;;
76846;SDS011;65813;49.546;8.644;2022-12-07T15:52:04;6.85;;;4.15;;
76846;SDS011;65813;49.546;8.644;2022-12-07T15:56:08;6.47;;;3.23;;
76846;SDS011;65813;49.546;8.644;2022-12-07T16:00:08;6.82;;;3.65;;
76846;SDS011;65813;49.546;8.644;2022-12-07T16:04:10;9.45;;;4.70;;
76846;SDS011;65813;49.546;8.644;2022-12-07T16:08:11;9.50;;;4.00;;
76846;SDS011;65813;49.546;8.644;2022-12-07T16:12:11;8.27;;;4.20;;
76846;SDS011;65813;49.546;8.644;2022-12-07T16:16:14;7.90;;;4.00;;
76846;SDS011;65813;49.546;8.644;2022-12-07T16:20:16;9.45;;;4.53;;
76846;SDS011;65813;49.546;8.644;2022-12-07T16:24:16;10.63;;;5.00;;
76846;SDS011;65813;49.546;8.644;2022-12-07T16:28:17;8.10;;;4.50;;
76846;SDS011;65813;49.546;8.644;2022-12-07T16:32:17;13.07;;;5.80;;
76846;SDS011;65813;49.546;8.644;2022-12-07T16:36:18;14.07;;;6.07;;
76846;SDS011;65813;49.546;8.644;2022-12-07T16:40:18;11.43;;;5.25;;
76846;SDS011;65813;49.546;8.644;2022-12-07T16:44:19;10.27;;;4.73;;
76846;SDS011;65813;49.546;8.644;2022-12-07T16:48:19;11.97;;;6.00;;
76846;SDS011;65813;49.546;8.644;2022-12-07T16:52:20;8.73;;;4.97;;
76846;SDS011;65813;49.546;8.644;2022-12-07T16:56:21;12.02;;;5.43;;
76846;SDS011;65813;49.546;8.644;2022-12-07T17:00:22;10.23;;;5.07;;
76846;SDS011;65813;49.546;8.644;2022-12-07T17:04:22;12.60;;;5.13;;
76846;SDS011;65813;49.546;8.644;2022-12-07T17:08:22;9.80;;;5.70;;
76846;SDS011;65813;49.546;8.644;2022-12-07T17:12:23;10.07;;;5.10;;
76846;SDS011;65813;49.546;8.644;2022-12-07T17:16:23;10.70;;;5.47;;
76846;SDS011;65813;49.546;8.644;2022-12-07T17:20:24;11.77;;;6.53;;
76846;SDS011;65813;49.546;8.644;2022-12-07T17:24:26;10.82;;;5.72;;
76846;SDS011;65813;49.546;8.644;2022-12-07T17:28:26;9.07;;;5.03;;
76846;SDS011;65813;49.546;8.644;2022-12-07T17:32:27;12.43;;;6.67;;
76846;SDS011;65813;49.546;8.644;2022-12-07T17:36:28;11.57;;;5.27;;
76846;SDS011;65813;49.546;8.644;2022-12-07T17:40:29;9.52;;;5.07;;
76846;SDS011;65813;49.546;8.644;2022-12-07T17:44:30;10.77;;;5.03;;
76846;SDS011;65813;49.546;8.644;2022-12-07T17:48:30;9.77;;;4.72;;
76846;SDS011;65813;49.546;8.644;2022-12-07T17:52:31;10.03;;;4.70;;
76846;SDS011;65813;49.546;8.644;2022-12-07T17:56:50;13.38;;;6.57;;
76846;SDS011;65813;49.546;8.644;2022-12-07T18:00:51;10.68;;;6.05;;
76846;SDS011;65813;49.546;8.644;2022-12-07T18:04:51;11.77;;;6.70;;
76846;SDS011;65813;49.546;8.644;2022-12-07T18:08:52;9.20;;;4.70;;
76846;SDS011;65813;49.546;8.644;2022-12-07T18:12:53;8.53;;;5.07;;
76846;SDS011;65813;49.546;8.644;2022-12-07T18:17:13;10.15;;;5.35;;
76846;SDS011;65813;49.546;8.644;2022-12-07T18:21:15;10.10;;;5.33;;
76846;SDS011;65813;49.546;8.644;2022-12-07T18:25:17;10.15;;;5.65;;
76846;SDS011;65813;49.546;8.644;2022-12-07T18:29:18;10.57;;;5.63;;
76846;SDS011;65813;49.546;8.644;2022-12-07T18:33:19;13.75;;;6.32;;
76846;SDS011;65813;49.546;8.644;2022-12-07T18:37:20;13.68;;;7.63;;
76846;SDS011;65813;49.546;8.644;2022-12-07T18:41:22;13.70;;;7.35;;
76846;SDS011;65813;49.546;8.644;2022-12-07T18:45:23;18.73;;;9.10;;
76846;SDS011;65813;49.546;8.644;2022-12-07T18:49:23;20.70;;;9.93;;
76846;SDS011;65813;49.546;8.644;2022-12-07T18:53:23;18.90;;;9.30;;
76846;SDS011;65813;49.546;8.644;2022-12-07T18:57:24;17.90;;;9.17;;
76846;SDS011;65813;49.546;8.644;2022-12-07T19:01:24;17.13;;;9.30;;
76846;SDS011;65813;49.546;8.644;2022-12-07T19:05:26;16.15;;;8.68;;
76846;SDS011;65813;49.546;8.644;2022-12-07T19:09:27;14.02;;;6.72;;
76846;SDS011;65813;49.546;8.644;2022-12-07T19:13:27;15.90;;;7.53;;
76846;SDS011;65813;49.546;8.644;2022-12-07T19:17:28;14.87;;;8.33;;
76846;SDS011;65813;49.546;8.644;2022-12-07T19:21:28;15.20;;;8.20;;
76846;SDS011;65813;49.546;8.644;2022-12-07T19:25:28;12.70;;;6.43;;
76846;SDS011;65813;49.546;8.644;2022-12-07T19:29:29;16.60;;;9.00;;
76846;SDS011;65813;49.546;8.644;2022-12-07T19:33:38;17.70;;;8.45;;
76846;SDS011;65813;49.546;8.644;2022-12-07T19:37:39;16.60;;;8.20;;
76846;SDS011;65813;49.546;8.644;2022-12-07T19:41:39;16.57;;;7.80;;
76846;SDS011;65813;49.546;8.644;2022-12-07T19:45:42;18.48;;;8.55;;
76846;SDS011;65813;49.546;8.644;2022-12-07T19:49:43;16.10;;;8.35;;
76846;SDS011;65813;49.546;8.644;2022-12-07T19:53:44;23.67;;;10.75;;
76846;SDS011;65813;49.546;8.644;2022-12-07T19:57:45;16.15;;;8.48;;
76846;SDS011;65813;49.546;8.644;2022-12-07T20:01:45;15.03;;;8.83;;
76846;SDS011;65813;49.546;8.644;2022-12-07T20:05:46;16.75;;;7.97;;
76846;SDS011;65813;49.546;8.644;2022-12-07T20:09:46;20.90;;;7.38;;
76846;SDS011;65813;49.546;8.644;2022-12-07T20:13:46;14.53;;;8.10;;
76846;SDS011;65813;49.546;8.644;2022-12-07T20:17:47;14.40;;;7.30;;
76846;SDS011;65813;49.546;8.644;2022-12-07T20:21:48;19.13;;;8.40;;
76846;SDS011;65813;49.546;8.644;2022-12-07T20:25:48;16.52;;;8.60;;
76846;SDS011;65813;49.546;8.644;2022-12-07T20:29:49;20.03;;;9.40;;
76846;SDS011;65813;49.546;8.644;2022-12-07T20:33:49;12.55;;;7.60;;
76846;SDS011;65813;49.546;8.644;2022-12-07T20:37:50;14.30;;;8.90;;
76846;SDS011;65813;49.546;8.644;2022-12-07T20:41:51;13.90;;;7.40;;
76846;SDS011;65813;49.546;8.644;2022-12-07T20:46:10;19.25;;;8.68;;
76846;SDS011;65813;49.546;8.644;2022-12-07T20:50:11;18.20;;;9.15;;
76846;SDS011;65813;49.546;8.644;2022-12-07T20:54:12;12.17;;;6.53;;
76846;SDS011;65813;49.546;8.644;2022-12-07T20:58:12;10.93;;;6.07;;
76846;SDS011;65813;49.546;8.644;2022-12-07T21:02:13;14.93;;;7.90;;
76846;SDS011;65813;49.546;8.644;2022-12-07T21:06:14;17.03;;;7.60;;
76846;SDS011;65813;49.546;8.644;2022-12-07T21:10:16;14.15;;;8.23;;
76846;SDS011;65813;49.546;8.644;2022-12-07T21:14:16;19.40;;;9.07;;
76846;SDS011;65813;49.546;8.644;2022-12-07T21:18:16;18.45;;;9.23;;
76846;SDS011;65813;49.546;8.644;2022-12-07T21:22:17;16.83;;;8.33;;
76846;SDS011;65813;49.546;8.644;2022-12-07T21:26:18;17.23;;;8.83;;
76846;SDS011;65813;49.546;8.644;2022-12-07T21:30:20;16.50;;;8.13;;
76846;SDS011;65813;49.546;8.644;2022-12-07T21:34:20;17.83;;;9.17;;
76846;SDS011;65813;49.546;8.644;2022-12-07T21:38:20;16.37;;;8.40;;
76846;SDS011;65813;49.546;8.644;2022-12-07T21:42:21;13.70;;;7.83;;
76846;SDS011;65813;49.546;8.644;2022-12-07T21:46:22;19.97;;;9.70;;
76846;SDS011;65813;49.546;8.644;2022-12-07T21:50:23;18.52;;;9.60;;
76846;SDS011;65813;49.546;8.644;2022-12-07T21:54:24;11.82;;;6.70;;
76846;SDS011;65813;49.546;8.644;2022-12-07T21:58:24;17.70;;;8.97;;
76846;SDS011;65813;49.546;8.644;2022-12-07T22:02:24;16.97;;;9.00;;
76846;SDS011;65813;49.546;8.644;2022-12-07T22:06:25;18.63;;;9.57;;
76846;SDS011;65813;49.546;8.644;2022-12-07T22:10:25;15.90;;;8.35;;
76846;SDS011;65813;49.546;8.644;2022-12-07T22:14:28;16.27;;;9.13;;
